Camden, ME

5:27 AM EDT on May 28, 2015 (GMT -0400)
KMEWALDO6 | | Change Station
CLOSE
Current Station
Personal Weather Station
Location: Town Office, Waldoboro, ME
Elevation: 85 ft
Nearby Weather Stations

Elev 85 ft 44.10 °N, 69.38 °W | Updated 5 seconds ago

Partly Cloudy
Partly Cloudy
59.3 °F
Feels Like 59.3 °F
N
0.0
Wind Variable Wind from NW
Gusts 1.0 mph

Today
High -- | Low -- °F
--% Chance of Precip.
Yesterday
High -- | Low -- °F
Precip. -- in
4:58 AM 8:09 PM
Waxing Gibbous, 74% visible
Pressure 30.05 in
Visibility 8.0 miles
Clouds Few 12000 ft
Dew Point 58 °F
Humidity 94%
Rainfall 0.00 in
Snow Depth Not available.
UV 0 out of 12
Pollen 9.30 out of 12
Air Quality Not available.
Flu Activity Local Activity
METAR KRKD 280915Z AUTO 22005KT 8SM FEW120 14/13 A3005 RMK AO1

More Conditions Fewer Conditions

Pressure 30.05 in
Visibility 8.0 miles
Clouds Few 12000 ft
Dew Point 58 °F
Humidity 94%
Rainfall 0.00 in
Snow Depth Not available.
UV 0 out of 12
Pollen 9.30 out of 12
Air Quality Not available.
Flu Activity Local Activity
METAR KRKD 280915Z AUTO 22005KT 8SM FEW120 14/13 A3005 RMK AO1

More Conditions Fewer Conditions

10-Day Weather Forecast

Almanac

Astronomy

May. 28, 2015 Rise Set
Actual Time
Civil Twilight
Nautical Twilight
Astronomical Twilight
Moon
Length of Visible Light
Length of Day
Tomorrow will be .
, % of the Moon is Illuminated

Today's Extremes

State Highs State Lows

Community

WunderPhotos

Upload Photos

1,824,935 photos uploaded!

WunderBlogs® & News

Nearby

Air Quality

  Air Quality AQ Index Pollutant
Not available.

Snow Depth

Station Depth Elevation

Earthquake Activity

City Distance Mag. Time & Date
Minimum magnitude displayed is 2.5.

Coastal Water Temperatures

Place Temperature

Stations

Nearby Weather Stations

Station Location Temp. Windchill Dew Point Humidity Wind Precip. Elev Updated Type